createdAt,value
2016-11-09T10:54:12.242Z,46.55
2016-11-09T11:04:19.569Z,46.23
2016-11-09T11:04:51.900Z,46.45
2016-11-09T11:05:24.212Z,46.45
2016-11-09T11:05:57.353Z,46.25
2016-11-09T11:06:29.677Z,46.25
2016-11-09T11:07:16.179Z,46.35
2016-11-09T11:24:26.639Z,46.55
2016-11-09T11:24:58.992Z,46.25
2016-11-09T11:25:31.312Z,46.64
2016-11-09T11:26:03.631Z,46.45
2016-11-09T11:26:35.972Z,46.15
2016-11-09T11:27:08.293Z,46.15
2016-11-09T11:27:40.646Z,46.25
2016-11-09T11:28:12.986Z,46.06
2016-11-09T11:28:45.297Z,46.25
2016-11-09T11:29:17.620Z,46.15
2016-11-09T11:29:49.942Z,46.25
2016-11-09T11:30:22.260Z,46.35
2016-11-09T11:30:54.583Z,46.25
2016-11-09T11:31:26.918Z,46.25
2016-11-09T11:31:59.308Z,46.15
2016-11-09T11:32:31.642Z,46.25
2016-11-09T11:33:03.950Z,46.35
2016-11-09T11:33:36.276Z,46.25
2016-11-09T11:34:08.616Z,46.25
2016-11-09T11:34:41.982Z,46.28
2016-11-09T11:35:14.525Z,46.35
2016-11-09T11:35:48.116Z,45.87
2016-11-09T11:36:21.002Z,45.87
2016-11-09T11:36:53.346Z,46.18
2016-11-09T11:37:25.718Z,45.77
2016-11-09T11:37:58.042Z,46.06
2016-11-09T11:38:30.960Z,45.87
2016-11-09T11:39:03.287Z,46.28
2016-11-09T11:39:35.644Z,46.25
2016-11-09T11:40:07.998Z,45.97
2016-11-09T11:40:40.318Z,46.35
2016-11-09T11:41:12.670Z,46.35
2016-11-09T11:41:45.019Z,46.37
2016-11-09T11:42:17.341Z,46.28
2016-11-09T11:42:49.678Z,46.37
2016-11-09T11:43:22.022Z,46.28
2016-11-09T11:43:54.347Z,46.28
2016-11-09T11:44:26.680Z,46.47
2016-11-09T11:44:59.010Z,45.79
2016-11-09T11:45:31.528Z,45.99
2016-11-09T11:46:03.884Z,45.89
2016-11-09T11:46:36.209Z,45.89
2016-11-09T11:47:08.525Z,45.89
2016-11-09T11:47:40.888Z,45.79
2016-11-09T11:48:14.489Z,45.89
2016-11-09T11:48:47.298Z,45.7
2016-11-09T11:49:20.416Z,45.7
2016-11-09T11:49:52.736Z,45.7
2016-11-09T11:50:25.620Z,45.7
2016-11-09T11:50:59.810Z,45.7
2016-11-09T11:51:33.369Z,45.6
2016-11-09T11:52:06.436Z,45.7
2016-11-09T11:52:38.756Z,45.79
2016-11-09T11:53:11.090Z,45.6
2016-11-09T11:53:43.408Z,46.18
2016-11-09T11:54:16.877Z,45.62
2016-11-09T11:54:50.559Z,45.79
2016-11-09T11:55:23.767Z,45.24
2016-11-09T11:55:56.102Z,45.34
2016-11-09T11:56:28.429Z,45.72
2016-11-09T11:57:00.753Z,45.34
2016-11-09T11:57:33.066Z,45.62
2016-11-09T11:58:06.071Z,45.53
2016-11-09T11:58:38.413Z,45.43
2016-11-09T11:59:10.744Z,45.53
2016-11-09T11:59:43.074Z,45.55
2016-11-09T12:00:16.623Z,45.55
2016-11-09T12:00:48.950Z,45.45
2016-11-09T12:01:21.273Z,45.45
2016-11-09T12:01:53.704Z,45.45
2016-11-09T12:02:26.274Z,45.17
2016-11-09T12:02:58.613Z,45.26
2016-11-09T12:03:30.963Z,45.48
2016-11-09T12:04:03.287Z,45.38
2016-11-09T12:04:35.604Z,45.36
2016-11-09T12:05:07.920Z,45.38
2016-11-09T12:05:40.219Z,45.26
2016-11-09T12:06:12.553Z,45.26
2016-11-09T12:06:45.738Z,45.26
2016-11-09T12:07:18.334Z,45.75
2016-11-09T12:07:51.623Z,45.28
2016-11-09T12:08:23.958Z,45.17
2016-11-09T12:08:56.291Z,45.36
2016-11-09T12:09:28.627Z,45.26
2016-11-09T12:10:00.949Z,45.36
2016-11-09T12:10:33.279Z,45.26
2016-11-09T12:11:05.604Z,45.45
2016-11-09T12:11:37.916Z,45.36
2016-11-09T12:12:10.295Z,45.36
2016-11-09T12:12:42.610Z,45.75
2016-11-09T12:13:14.927Z,45.26
2016-11-09T12:13:47.240Z,45.36
2016-11-09T12:14:19.834Z,45.45
2016-11-09T12:14:52.174Z,45.26
2016-11-09T12:15:24.514Z,45.17
2016-11-09T12:15:56.830Z,45.36
2016-11-09T12:16:29.149Z,45.45
2016-11-09T12:17:01.473Z,45.07
2016-11-09T12:17:33.809Z,45.07
2016-11-09T12:18:06.169Z,44.97
2016-11-09T12:18:38.508Z,44.97
2016-11-09T12:19:10.838Z,45.26
2016-11-09T12:19:43.170Z,45.26
2016-11-09T12:20:15.492Z,45.55
2016-11-09T12:20:47.824Z,44.87
2016-11-09T12:21:20.188Z,45.55
2016-11-09T12:21:52.563Z,45.17
2016-11-09T12:22:27.303Z,45.62
2016-11-09T12:22:59.613Z,45.43
2016-11-09T12:23:31.950Z,45.14
2016-11-09T12:24:04.254Z,45.14
2016-11-09T12:24:36.595Z,45.14
2016-11-09T12:25:08.992Z,45.04
2016-11-09T12:25:41.303Z,44.95
2016-11-09T12:26:13.625Z,44.85
2016-11-09T12:26:45.978Z,44.97
2016-11-09T12:27:18.895Z,45.34
2016-11-09T12:27:51.245Z,44.56
2016-11-09T12:28:25.959Z,44.59
2016-11-09T12:28:58.285Z,45.26
2016-11-09T12:29:30.664Z,44.78
2016-11-09T12:30:02.997Z,44.78
2016-11-09T12:30:35.330Z,45.26
2016-11-09T12:31:07.642Z,44.68
2016-11-09T12:31:39.943Z,45.36
2016-11-09T12:32:12.222Z,44.78
2016-11-09T12:32:44.544Z,44.66
2016-11-09T12:33:16.866Z,45.24
2016-11-09T12:33:49.206Z,45.24
2016-11-09T12:34:21.536Z,45.24
2016-11-09T12:34:53.867Z,44.37
2016-11-09T12:35:26.209Z,45.14
2016-11-09T12:35:58.532Z,44.66
2016-11-09T12:36:30.878Z,44.95
2016-11-09T12:37:03.191Z,45.53
2016-11-09T12:37:35.516Z,45.14
2016-11-09T12:38:07.836Z,44.85
2016-11-09T12:38:40.198Z,45.14
2016-11-09T12:39:12.531Z,44.95
2016-11-09T12:39:45.396Z,45.21
2016-11-09T12:40:17.732Z,45.24
2016-11-09T12:40:50.065Z,45.51
2016-11-09T12:41:22.428Z,45.03
2016-11-09T12:41:54.745Z,45.51
2016-11-09T12:42:27.078Z,45.51
2016-11-09T12:42:59.415Z,45.12
2016-11-09T12:43:31.734Z,45.41
2016-11-09T12:44:04.051Z,45.41
2016-11-09T12:44:36.381Z,45.41
2016-11-09T12:45:08.703Z,45.31
2016-11-09T12:45:41.026Z,45.21
2016-11-09T12:46:13.343Z,45.1
2016-11-09T12:46:45.662Z,45.58
2016-11-09T12:47:17.973Z,45.68
2016-11-09T12:47:50.296Z,45.1
2016-11-09T12:48:22.651Z,45.29
2016-11-09T12:48:54.969Z,45.1
2016-11-09T12:49:27.310Z,45
2016-11-09T12:49:59.619Z,45.39
2016-11-09T12:50:32.019Z,45
2016-11-09T12:51:04.329Z,45
2016-11-09T12:51:36.637Z,45.39
2016-11-09T12:52:08.955Z,45.48
2016-11-09T12:52:41.289Z,45.46
2016-11-09T12:53:13.607Z,45.48
2016-11-09T12:53:45.996Z,45.48
2016-11-09T12:54:18.453Z,45.48
2016-11-09T12:54:50.925Z,45.65
2016-11-09T12:55:23.265Z,45.46
2016-11-09T12:55:55.591Z,45.36
2016-11-09T12:56:27.910Z,45.36
2016-11-09T12:57:00.238Z,45.36
2016-11-09T12:57:32.556Z,45.56
2016-11-09T12:58:04.877Z,45.56
2016-11-09T12:58:37.204Z,45.36
2016-11-09T12:59:09.532Z,45.65
2016-11-09T12:59:42.411Z,45.56
2016-11-09T13:00:14.742Z,45.75
2016-11-09T13:00:47.074Z,45.36
2016-11-09T13:01:19.388Z,45.65
2016-11-09T13:01:51.867Z,45.65
2016-11-09T13:02:24.306Z,45.65
2016-11-09T13:02:56.665Z,45.56
2016-11-09T13:03:28.996Z,45.05
2016-11-09T13:04:01.313Z,45.73
2016-11-09T13:04:33.644Z,45.25
2016-11-09T13:05:05.952Z,45.05
2016-11-09T13:05:38.272Z,45.73
2016-11-09T13:06:10.571Z,45.34
2016-11-09T13:06:42.901Z,45.73
2016-11-09T13:07:15.220Z,45.83
2016-11-09T13:07:47.689Z,46.11
2016-11-09T13:08:20.577Z,45.25
2016-11-09T13:08:53.108Z,45.53
2016-11-09T13:09:25.429Z,45.44
2016-11-09T13:09:57.743Z,45.63
2016-11-09T13:10:30.072Z,46.21
2016-11-09T13:11:02.931Z,45.73
2016-11-09T13:11:35.242Z,45.63
2016-11-09T13:12:07.552Z,45.63
2016-11-09T13:12:39.870Z,45.63
2016-11-09T13:13:12.187Z,45.53
2016-11-09T13:13:44.521Z,45.53
2016-11-09T13:14:16.840Z,45.53
2016-11-09T13:14:49.167Z,45.44
2016-11-09T13:15:21.488Z,45.61
2016-11-09T13:15:53.811Z,45.7
2016-11-09T13:16:27.030Z,45.83
2016-11-09T13:16:59.356Z,45.53
2016-11-09T13:17:31.669Z,45.7
2016-11-09T13:18:03.985Z,45.7
2016-11-09T13:18:36.446Z,45.8
2016-11-09T13:19:11.544Z,45.7
2016-11-09T13:19:44.960Z,45.7
2016-11-09T13:20:19.394Z,45.8
2016-11-09T13:20:54.012Z,45.8
2016-11-09T13:21:29.467Z,46.38
2016-11-09T13:22:04.695Z,45.61
2016-11-09T13:22:38.622Z,45.9
2016-11-09T13:23:12.553Z,45.99
2016-11-09T13:23:47.065Z,46.28
2016-11-09T13:24:23.544Z,46.28
2016-11-09T13:24:57.696Z,46.09
2016-11-09T13:25:31.027Z,46.28
2016-11-09T13:26:05.545Z,46.19
2016-11-09T13:26:39.545Z,46.28
2016-11-09T13:29:05.671Z,46.19
2016-11-09T13:29:38.172Z,46.28
2016-11-09T13:30:10.491Z,46.28
2016-11-09T13:30:42.825Z,46.06
2016-11-09T13:31:15.146Z,46.16
2016-11-09T13:31:47.535Z,46.16
2016-11-09T13:32:19.857Z,46.26
2016-11-09T13:32:53.046Z,46.16
2016-11-09T13:33:25.875Z,45.87
2016-11-09T13:34:01.929Z,46.36
2016-11-09T13:34:37.196Z,46.26
2016-11-09T13:35:11.375Z,45.87
2016-11-09T13:35:46.202Z,46.36
2016-11-09T13:36:21.203Z,46.26
2016-11-09T13:36:56.851Z,45.97
2016-11-09T13:37:38.295Z,46.26
2016-11-09T13:38:12.557Z,46.26
2016-11-09T13:38:47.801Z,46.36
2016-11-09T13:39:23.792Z,46.16
2016-11-09T13:40:01.802Z,46.16
2016-11-09T13:40:39.298Z,46.16
2016-11-09T13:41:20.311Z,46.36
2016-11-09T13:41:57.310Z,46.26
2016-11-09T13:42:35.012Z,46.06
2016-11-09T13:43:07.435Z,45.97
2016-11-09T13:43:40.748Z,46.36
2016-11-09T13:44:13.101Z,45.76
2016-11-09T13:44:45.490Z,46.16
2016-11-09T13:45:19.343Z,46.16
2016-11-09T13:45:51.659Z,46.14
2016-11-09T13:46:25.799Z,46.33
2016-11-09T13:46:58.115Z,45.87
2016-11-09T13:47:30.418Z,46.23
2016-11-09T13:48:03.313Z,46.33
2016-11-09T13:48:36.256Z,46.33
2016-11-09T13:49:08.868Z,46.33
2016-11-09T13:49:41.355Z,46.23
2016-11-09T13:50:13.684Z,46.23
2016-11-09T13:50:46.056Z,46.33
2016-11-09T13:51:18.676Z,46.23
2016-11-09T13:51:51.005Z,46.14
2016-11-09T13:52:23.432Z,46.14
2016-11-09T13:52:56.298Z,46.33
2016-11-09T13:53:29.930Z,46.14
2016-11-09T13:54:02.464Z,46.04
2016-11-09T13:54:35.008Z,46.23
2016-11-09T13:55:07.327Z,46.43
2016-11-09T13:55:39.895Z,46.33
2016-11-09T13:56:12.306Z,46.43
2016-11-09T13:56:44.719Z,46.23
2016-11-09T13:57:17.077Z,46.33
2016-11-09T13:57:49.462Z,46.43
2016-11-09T13:58:22.476Z,46.23
2016-11-09T13:58:55.889Z,46.04
2016-11-09T13:59:29.313Z,46.33
2016-11-09T14:00:01.634Z,46.04
2016-11-09T14:00:34.826Z,46.53
2016-11-09T14:01:08.902Z,46.62
2016-11-09T14:01:41.381Z,46.53
2016-11-09T14:02:14.250Z,46.53
2016-11-09T14:02:46.899Z,46.62
2016-11-09T14:03:20.187Z,46.53
2016-11-09T14:03:52.551Z,46.53
2016-11-09T14:04:25.811Z,46.53
2016-11-09T14:05:02.320Z,46.43
2016-11-09T14:05:38.806Z,46.53
2016-11-09T14:06:15.315Z,46.72
2016-11-09T14:06:50.441Z,46.62
2016-11-09T14:07:26.813Z,46.62
2016-11-09T14:08:02.320Z,46.41
2016-11-09T14:08:38.970Z,46.41
2016-11-09T14:09:15.329Z,46.5
2016-11-09T14:09:51.023Z,46.62
2016-11-09T14:10:38.404Z,46.5
2016-11-09T14:11:13.698Z,46.5
2016-11-09T14:11:47.556Z,46.59
2016-11-09T14:12:22.939Z,46.69
2016-11-09T14:12:55.311Z,46.59
2016-11-09T14:13:27.703Z,46.79
2016-11-09T14:14:01.215Z,46.5
2016-11-09T14:14:34.368Z,46.59
2016-11-09T14:15:06.688Z,46.69
2016-11-09T14:15:38.994Z,46.41
2016-11-09T14:16:11.907Z,46.79
2016-11-09T14:16:50.925Z,46.98
2016-11-09T14:17:28.422Z,46.5
2016-11-09T14:18:05.430Z,46.89
2016-11-09T14:18:39.564Z,46.89
2016-11-09T14:19:14.096Z,46.98
2016-11-09T14:19:49.915Z,46.59
2016-11-09T14:20:28.422Z,46.59
2016-11-09T14:21:02.924Z,46.41
2016-11-09T14:21:41.909Z,46.89
2016-11-09T14:22:18.444Z,46.79
2016-11-09T14:22:56.924Z,46.98
2016-11-09T14:23:32.920Z,46.98
2016-11-09T14:24:10.644Z,46.79
2016-11-09T14:24:46.052Z,46.89
2016-11-09T14:25:22.018Z,46.79
2016-11-09T14:25:56.168Z,46.89
2016-11-09T14:26:30.913Z,46.86
2016-11-09T14:27:04.581Z,46.86
2016-11-09T14:27:44.916Z,46.86
2016-11-09T14:28:20.424Z,46.98
2016-11-09T14:28:55.821Z,46.86
2016-11-09T14:29:32.245Z,46.79
2016-11-09T14:30:07.413Z,46.79
2016-11-09T14:30:40.979Z,46.96
2016-11-09T14:31:15.918Z,47.05
2016-11-09T14:31:52.418Z,47.05
2016-11-09T14:32:30.879Z,47.05
2016-11-09T14:33:04.724Z,46.96
2016-11-09T14:33:39.167Z,46.96
2016-11-09T14:34:12.789Z,46.77
2016-11-09T14:34:47.134Z,46.77
2016-11-09T14:35:22.730Z,46.96
2016-11-09T14:35:57.608Z,46.96
2016-11-09T14:36:32.829Z,46.96
2016-11-09T14:37:06.555Z,46.96
2016-11-09T14:37:42.430Z,46.96
2016-11-09T14:38:17.430Z,46.67
2016-11-09T14:38:52.922Z,46.96
2016-11-09T14:39:28.224Z,47.15
2016-11-09T14:40:03.748Z,46.96
2016-11-09T14:40:43.931Z,47.15
2016-11-09T14:41:22.600Z,47.05
2016-11-09T14:41:59.408Z,47.15
2016-11-09T14:42:34.494Z,47.15
2016-11-09T14:43:10.185Z,47.15
2016-11-09T14:43:44.030Z,47.15
2016-11-09T14:44:17.734Z,47.25
2016-11-09T14:44:54.422Z,47.25
2016-11-09T14:45:28.803Z,47.25
2016-11-09T14:46:02.009Z,47.15
2016-11-09T14:46:35.335Z,47.05
2016-11-09T14:47:07.655Z,47.05
2016-11-09T14:47:39.982Z,47.15
2016-11-09T14:48:12.307Z,47.15
2016-11-09T14:48:44.668Z,47.15
2016-11-09T14:49:17.009Z,47.05
2016-11-09T14:49:49.363Z,47.25
2016-11-09T14:50:21.679Z,47.15
2016-11-09T14:50:54.012Z,47.25
2016-11-09T14:51:26.345Z,47.15
2016-11-09T14:51:58.701Z,47.25
2016-11-09T14:52:31.035Z,47.15
2016-11-09T14:53:03.355Z,46.96
2016-11-09T14:53:35.686Z,47.22
2016-11-09T14:54:08.016Z,47.15
2016-11-09T14:54:40.348Z,47.15
2016-11-09T14:55:12.669Z,47.05
2016-11-09T14:55:45.005Z,47.15
2016-11-09T14:56:17.379Z,47.03
2016-11-09T14:56:49.697Z,47.34
2016-11-09T14:57:22.004Z,47.05
2016-11-09T14:57:54.353Z,46.96
2016-11-09T14:58:26.679Z,47.34
2016-11-09T14:58:59.001Z,47.32
2016-11-09T14:59:31.322Z,47.34
2016-11-09T15:00:03.637Z,47.32
2016-11-09T15:00:35.969Z,47.25
2016-11-09T15:01:08.329Z,47.25
2016-11-09T15:01:40.656Z,47.32
2016-11-09T15:02:12.987Z,47.13
2016-11-09T15:02:45.300Z,47.03
2016-11-09T15:03:17.621Z,47.05
2016-11-09T15:03:49.963Z,47.22
2016-11-09T15:04:23.314Z,47.15
2016-11-09T15:04:55.643Z,47.25
2016-11-09T15:05:27.964Z,47.15
2016-11-09T15:06:00.283Z,47.22
2016-11-09T15:06:32.614Z,47.22
2016-11-09T15:07:04.966Z,47.13
2016-11-09T15:07:37.300Z,47.13
2016-11-09T15:08:09.622Z,47.22
2016-11-09T15:08:41.982Z,47.13
2016-11-09T15:09:14.311Z,47.13
2016-11-09T15:09:46.644Z,47.34
2016-11-09T15:10:19.004Z,47.22
2016-11-09T15:10:51.365Z,47.13
2016-11-09T15:11:23.685Z,47.34
2016-11-09T15:11:56.011Z,47.13
2016-11-09T15:12:28.342Z,47.13
2016-11-09T15:13:00.665Z,47.05
2016-11-09T15:13:32.990Z,47.03
2016-11-09T15:14:05.329Z,47.41
2016-11-09T15:14:37.652Z,47.32
2016-11-09T15:15:09.970Z,47.13
2016-11-09T15:15:42.333Z,47.32
2016-11-09T15:16:14.651Z,47.13
2016-11-09T15:16:46.984Z,47.32
2016-11-09T15:17:19.304Z,47.22
2016-11-09T15:17:51.635Z,47.41
2016-11-09T15:18:28.035Z,47.32
2016-11-09T15:19:00.355Z,47.13
2016-11-09T15:19:32.691Z,47.32
2016-11-09T15:20:05.025Z,47.32
2016-11-09T15:20:37.367Z,47.32
2016-11-09T15:21:09.703Z,47.32
2016-11-09T15:21:42.043Z,47.41
2016-11-09T15:22:14.372Z,47.22
2016-11-09T15:22:46.699Z,47.22
2016-11-09T15:23:19.024Z,47.32
2016-11-09T15:23:51.354Z,47.32
2016-11-09T15:24:23.673Z,47.41
2016-11-09T15:24:56.036Z,47.41
2016-11-09T15:25:28.360Z,47.32
2016-11-09T15:26:00.704Z,47.32
2016-11-09T15:26:33.019Z,47.32
2016-11-09T15:27:05.374Z,47.41
2016-11-09T15:27:37.694Z,47.32
2016-11-09T15:28:10.006Z,47.32
2016-11-09T15:28:42.326Z,47.32
2016-11-09T15:29:14.658Z,47.51
2016-11-09T15:29:46.989Z,47.32
2016-11-09T15:30:19.315Z,47.51
2016-11-09T15:30:51.644Z,47.22
2016-11-09T15:31:23.958Z,47.41
2016-11-09T15:31:56.275Z,47.32
2016-11-09T15:32:28.633Z,47.32
2016-11-09T15:33:00.966Z,47.32
2016-11-09T15:33:33.289Z,47.32
2016-11-09T15:34:05.613Z,47.32
2016-11-09T15:34:37.945Z,47.41
2016-11-09T15:35:10.266Z,47.41
2016-11-09T15:35:42.575Z,47.32
2016-11-09T15:36:14.905Z,47.32
2016-11-09T15:36:47.512Z,47.41
2016-11-09T15:37:20.931Z,47.41
2016-11-09T15:37:54.160Z,47.32
2016-11-09T15:38:26.532Z,47.22
2016-11-09T15:38:58.862Z,47.41
2016-11-09T15:39:31.191Z,47.41
2016-11-09T15:40:03.917Z,47.51
2016-11-09T15:40:37.295Z,47.22
2016-11-09T15:41:10.057Z,47.32
2016-11-09T15:41:42.416Z,47.51
2016-11-09T15:42:15.139Z,47.22
2016-11-09T15:42:48.723Z,47.32
2016-11-09T15:43:22.366Z,47.22
2016-11-09T15:43:56.010Z,47.32
2016-11-09T15:44:29.651Z,47.22
2016-11-09T15:45:03.223Z,47.22
2016-11-09T15:45:36.376Z,47.41
2016-11-09T15:46:08.874Z,47.32
2016-11-09T15:46:41.208Z,47.32
2016-11-09T15:47:13.540Z,47.61
2016-11-09T15:47:45.863Z,47.41
2016-11-09T15:48:18.190Z,47.41
2016-11-09T15:48:50.512Z,47.32
2016-11-09T15:49:22.838Z,47.41
2016-11-09T15:49:55.589Z,47.41
2016-11-09T15:50:29.227Z,47.41
2016-11-09T15:51:02.741Z,47.32
2016-11-09T15:51:35.855Z,47.22
2016-11-09T15:52:08.281Z,47.32
2016-11-09T15:52:40.636Z,47.32
2016-11-09T15:53:12.967Z,47.41
2016-11-09T15:53:45.298Z,47.32
2016-11-09T15:54:17.997Z,47.41
2016-11-09T15:54:51.285Z,47.32
2016-11-09T15:55:23.809Z,47.32
2016-11-09T15:55:56.171Z,47.41
2016-11-09T15:56:28.890Z,47.32
2016-11-09T15:57:02.217Z,47.41
2016-11-09T15:57:34.992Z,47.51
2016-11-09T15:58:07.336Z,47.41
2016-11-09T15:58:40.278Z,47.61
2016-11-09T15:59:13.489Z,47.61
2016-11-09T15:59:45.948Z,47.51
2016-11-09T16:00:18.311Z,47.41
2016-11-09T16:00:50.635Z,47.51
2016-11-09T16:01:22.959Z,47.41
2016-11-09T16:01:55.281Z,47.41
2016-11-09T16:02:27.615Z,47.51
2016-11-09T16:02:59.948Z,47.32
2016-11-09T16:03:32.265Z,47.61
2016-11-09T16:04:05.003Z,47.51
2016-11-09T16:04:38.573Z,47.51
2016-11-09T16:05:12.159Z,47.51
2016-11-09T16:05:45.560Z,47.41
2016-11-09T16:06:18.271Z,47.61
2016-11-09T16:06:51.016Z,47.41
2016-11-09T16:07:24.074Z,47.51
2016-11-09T16:07:56.486Z,47.51
2016-11-09T16:08:28.822Z,47.51
2016-11-09T16:09:01.145Z,47.41
2016-11-09T16:09:33.790Z,47.61
2016-11-09T16:10:07.403Z,47.51
2016-11-09T16:10:40.982Z,47.61
2016-11-09T16:11:14.991Z,47.51
2016-11-09T16:11:47.679Z,47.51
2016-11-09T16:12:20.002Z,47.51
2016-11-09T16:12:52.327Z,47.61
2016-11-09T16:13:24.639Z,47.51
2016-11-09T16:13:56.973Z,47.51
2016-11-09T16:14:29.294Z,47.61
2016-11-09T16:15:01.623Z,47.61
2016-11-09T16:15:33.949Z,47.51
2016-11-09T16:16:06.275Z,47.51
2016-11-09T16:16:38.588Z,47.61
2016-11-09T16:17:11.014Z,47.61
2016-11-09T16:17:43.823Z,47.41
2016-11-09T16:18:17.437Z,47.51
2016-11-09T16:18:51.684Z,47.51
2016-11-09T16:19:25.333Z,47.61
2016-11-09T16:19:58.911Z,47.61
2016-11-09T16:20:32.470Z,47.41
2016-11-09T16:21:06.129Z,47.61
2016-11-09T16:21:39.759Z,47.41
2016-11-09T16:22:13.354Z,47.51
2016-11-09T16:22:47.023Z,47.51
2016-11-09T16:23:21.369Z,47.51
2016-11-09T16:23:54.993Z,47.41
2016-11-09T16:24:28.626Z,47.51
2016-11-09T16:25:03.227Z,47.61
2016-11-09T16:25:36.842Z,47.51
2016-11-09T16:26:10.469Z,47.51
2016-11-09T16:26:44.096Z,47.41
2016-11-09T16:27:17.725Z,47.51
2016-11-09T16:27:51.350Z,47.51
2016-11-09T16:28:24.983Z,47.61
2016-11-09T16:28:58.597Z,47.51
2016-11-09T16:29:32.247Z,47.61
2016-11-09T16:30:05.811Z,47.61
2016-11-09T16:30:39.464Z,47.51
2016-11-09T16:31:13.119Z,47.61
2016-11-09T16:31:46.747Z,47.41
2016-11-09T16:32:20.372Z,47.51
2016-11-09T16:32:53.979Z,47.71
2016-11-09T16:33:27.549Z,47.61
2016-11-09T16:34:01.143Z,47.61
2016-11-09T16:34:34.488Z,47.61
2016-11-09T16:35:07.262Z,47.71
2016-11-09T16:35:39.787Z,47.71
2016-11-09T16:36:12.157Z,47.61
2016-11-09T16:36:44.487Z,47.61
2016-11-09T16:37:16.805Z,47.8
2016-11-09T16:37:49.125Z,47.61
2016-11-09T16:38:21.481Z,47.71
2016-11-09T16:38:53.834Z,47.61
2016-11-09T16:39:26.198Z,47.71
2016-11-09T16:39:58.581Z,47.61
2016-11-09T16:40:30.906Z,47.61
2016-11-09T16:41:03.411Z,47.61
2016-11-09T16:41:35.735Z,47.61
2016-11-09T16:42:08.072Z,47.61
2016-11-09T16:42:40.395Z,47.61
2016-11-09T16:43:12.721Z,47.61
2016-11-09T16:43:45.044Z,47.61
2016-11-09T16:44:17.377Z,47.71
2016-11-09T16:44:49.708Z,47.71
2016-11-09T16:45:22.040Z,47.61
2016-11-09T16:45:54.361Z,47.71
2016-11-09T16:46:26.688Z,47.61
2016-11-09T16:46:59.015Z,47.61
2016-11-09T16:47:31.345Z,47.61
2016-11-09T16:48:03.714Z,47.71
2016-11-09T16:48:36.031Z,47.71
2016-11-09T16:49:08.340Z,47.61
2016-11-09T16:49:40.660Z,47.71
2016-11-09T16:50:12.971Z,47.61
2016-11-09T16:50:45.321Z,47.61
2016-11-09T16:51:17.642Z,47.61
2016-11-09T16:51:49.996Z,47.89
2016-11-09T16:52:25.535Z,47.61
2016-11-09T16:53:01.450Z,47.71
2016-11-09T16:53:33.784Z,47.51
2016-11-09T16:54:06.092Z,47.61
2016-11-09T16:54:38.410Z,47.8
2016-11-09T16:55:10.760Z,47.51
2016-11-09T16:55:43.085Z,47.51
2016-11-09T16:56:15.413Z,47.71
2016-11-09T16:56:47.737Z,47.89
2016-11-09T16:57:20.061Z,47.71
2016-11-09T16:57:52.400Z,47.61
2016-11-09T16:58:24.745Z,47.61
2016-11-09T16:58:57.058Z,47.71
2016-11-09T16:59:29.393Z,47.71
2016-11-09T17:00:01.711Z,47.8
2016-11-09T17:00:34.044Z,47.61
2016-11-09T17:01:06.367Z,47.61
2016-11-09T17:01:38.698Z,47.89
2016-11-09T17:02:11.014Z,47.61
2016-11-09T17:02:43.341Z,47.51
2016-11-09T17:03:15.665Z,47.51
2016-11-09T17:03:47.991Z,47.71
2016-11-09T17:04:20.314Z,47.8
2016-11-09T17:04:52.645Z,47.8
2016-11-09T17:05:24.962Z,47.8
2016-11-09T17:05:57.292Z,47.71
2016-11-09T17:06:29.613Z,47.51
2016-11-09T17:07:01.933Z,47.8
2016-11-09T17:07:34.250Z,47.89
2016-11-09T17:08:06.575Z,47.8
2016-11-09T17:08:38.891Z,47.8
2016-11-09T17:09:11.226Z,47.8
2016-11-09T17:09:43.554Z,47.99
2016-11-09T17:10:15.886Z,47.61
2016-11-09T17:10:48.227Z,47.71
2016-11-09T17:11:20.558Z,47.8
2016-11-09T17:11:52.889Z,47.89
2016-11-09T17:12:25.223Z,47.8
2016-11-09T17:12:57.583Z,47.8
2016-11-09T17:13:29.908Z,47.61
2016-11-09T17:14:02.244Z,47.8
2016-11-09T17:14:34.564Z,47.89
2016-11-09T17:15:06.867Z,47.71
2016-11-09T17:15:39.187Z,47.71
2016-11-09T17:16:11.517Z,47.8
2016-11-09T17:16:43.841Z,47.89
2016-11-09T17:17:16.210Z,47.8
2016-11-09T17:17:48.526Z,47.89
2016-11-09T17:18:20.856Z,47.89
2016-11-09T17:18:53.174Z,47.8
2016-11-09T17:19:25.495Z,47.89
2016-11-09T17:19:57.820Z,47.8
2016-11-09T17:20:30.141Z,47.8
2016-11-09T17:21:02.472Z,47.8
2016-11-09T17:21:34.824Z,47.8
2016-11-09T17:22:07.157Z,47.8
2016-11-09T17:22:39.490Z,47.99
2016-11-09T17:23:11.840Z,47.99
2016-11-09T17:23:44.176Z,47.8
2016-11-09T17:24:16.533Z,48.09
2016-11-09T17:24:48.881Z,47.89
2016-11-09T17:25:21.209Z,47.89
2016-11-09T17:25:53.527Z,47.89
2016-11-09T17:26:25.848Z,47.89
2016-11-09T17:26:58.170Z,47.99
2016-11-09T17:27:30.521Z,47.87
2016-11-09T17:28:02.839Z,47.89
2016-11-09T17:28:35.171Z,47.8
2016-11-09T17:29:07.508Z,47.89
2016-11-09T17:29:39.834Z,47.89
2016-11-09T17:30:12.145Z,47.8
2016-11-09T17:30:44.477Z,47.99
2016-11-09T17:31:16.800Z,47.99
2016-11-09T17:31:49.162Z,47.8
2016-11-09T17:32:21.516Z,47.99
2016-11-09T17:32:53.833Z,47.87
2016-11-09T17:33:26.158Z,47.99
2016-11-09T17:33:58.488Z,48.09
2016-11-09T17:34:30.822Z,47.99
2016-11-09T17:35:03.137Z,47.99
2016-11-09T17:35:35.474Z,47.99
2016-11-09T17:36:07.786Z,47.99
2016-11-09T17:36:40.100Z,47.8
2016-11-09T17:37:12.415Z,47.99
2016-11-09T17:37:44.748Z,47.99
2016-11-09T17:38:17.072Z,47.99
2016-11-09T17:38:49.414Z,48.09
2016-11-09T17:39:21.738Z,47.97
2016-11-09T17:39:54.079Z,47.97
2016-11-09T17:40:26.457Z,47.99
2016-11-09T17:40:58.795Z,47.97
2016-11-09T17:41:31.954Z,47.97
2016-11-09T17:42:04.407Z,47.89
2016-11-09T17:42:36.721Z,47.89
2016-11-09T17:43:09.038Z,48.07
2016-11-09T17:43:41.434Z,48.07
2016-11-09T17:44:13.778Z,47.97
2016-11-09T17:44:46.109Z,47.99
2016-11-09T17:45:18.444Z,47.87
2016-11-09T17:45:50.772Z,47.97
2016-11-09T17:46:23.128Z,47.87
2016-11-09T17:46:55.447Z,47.87
2016-11-09T17:47:27.772Z,47.87
2016-11-09T17:48:00.099Z,47.89
2016-11-09T17:48:32.425Z,47.87
2016-11-09T17:49:04.749Z,47.77
2016-11-09T17:49:37.071Z,47.87
2016-11-09T17:50:09.402Z,47.87
2016-11-09T17:50:41.733Z,47.87
2016-11-09T17:51:14.074Z,47.87
2016-11-09T17:51:46.408Z,47.87
2016-11-09T17:52:18.717Z,47.87
2016-11-09T17:52:51.045Z,47.77
2016-11-09T17:53:23.393Z,47.87
2016-11-09T17:53:55.756Z,47.77
2016-11-09T17:54:28.091Z,47.77
2016-11-09T17:55:00.420Z,47.87
2016-11-09T17:55:32.755Z,47.87
2016-11-09T17:56:05.090Z,47.97
2016-11-09T17:56:37.428Z,47.97
2016-11-09T17:57:09.752Z,47.87
2016-11-09T17:57:42.060Z,47.97
2016-11-09T17:58:14.388Z,47.97
2016-11-09T17:58:46.719Z,47.87
2016-11-09T17:59:19.053Z,47.77
2016-11-09T17:59:51.387Z,47.87
2016-11-09T18:00:23.712Z,47.77
2016-11-09T18:00:56.038Z,47.97
2016-11-09T18:01:28.369Z,47.97
2016-11-09T18:02:00.688Z,47.97
2016-11-09T18:02:33.040Z,47.87
2016-11-09T18:03:05.370Z,47.97
2016-11-09T18:03:37.699Z,48.07
2016-11-09T18:04:10.029Z,48.07
2016-11-09T18:04:42.348Z,47.97
2016-11-09T18:05:14.671Z,47.97
2016-11-09T18:05:46.986Z,47.97
2016-11-09T18:06:19.314Z,48.07
2016-11-09T18:06:51.627Z,47.87
2016-11-09T18:07:23.950Z,47.97
2016-11-09T18:07:56.267Z,48.07
2016-11-09T18:08:28.595Z,47.97
2016-11-09T18:09:00.926Z,48.07
2016-11-09T18:09:33.479Z,47.97
2016-11-09T18:10:06.690Z,47.87
2016-11-09T18:10:40.268Z,48.07
2016-11-09T18:11:13.847Z,47.87
2016-11-09T18:11:47.280Z,47.87
2016-11-09T18:12:20.006Z,47.97
2016-11-09T18:12:52.404Z,47.89
2016-11-09T18:13:24.743Z,47.89
2016-11-09T18:13:57.094Z,47.97
2016-11-09T18:14:29.453Z,47.97
2016-11-09T18:15:01.784Z,47.97
2016-11-09T18:15:34.166Z,48.09
2016-11-09T18:16:06.527Z,47.99
2016-11-09T18:16:38.853Z,47.97
2016-11-09T18:17:11.172Z,47.87
2016-11-09T18:17:43.492Z,47.97
2016-11-09T18:18:15.813Z,47.77
2016-11-09T18:18:48.145Z,47.87
2016-11-09T18:19:20.479Z,48.07
2016-11-09T18:19:52.834Z,47.97
2016-11-09T18:20:25.161Z,47.97
2016-11-09T18:20:57.497Z,47.97
2016-11-09T18:21:29.817Z,47.97
2016-11-09T18:22:02.444Z,47.87
2016-11-09T18:22:35.328Z,47.97
2016-11-09T18:23:07.650Z,47.97
2016-11-09T18:23:39.976Z,47.97
2016-11-09T18:24:12.303Z,47.97
2016-11-09T18:24:44.824Z,47.87
2016-11-09T18:25:17.124Z,47.97
2016-11-09T18:25:49.435Z,47.97
2016-11-09T18:26:21.760Z,48.07
2016-11-09T18:26:54.092Z,47.87
2016-11-09T18:27:26.418Z,47.99